UAL2077 KEUG-KSFO
Flight info
| Callsign | UAL2077 |
|---|---|
| Flight time | 1h 10m |
| Altitude | 37000 |
| Route | RBG MLBEC BDEGA4 |
| Aircraft | A320/M-SDE3FGHIRWY/LB1 |
Departure
| Time | 2026-05-08 03:09 |
|---|---|
| Airport | Eugene Airport (KEUG) |
Arrival
| Time | 2026-05-08 04:19 |
|---|---|
| Airport | San Francisco International Airport (KSFO) |
| Time | Latitude | Longitude | Altitude | Speed | Heading |
|---|---|---|---|---|---|
| 2026-05-08 02:39 | 44.11984 | -123.21473 | 369 ft | 0 kts | 113° |
| 2026-05-08 02:59 | 44.11985 | -123.21477 | 368 ft | 2 kts | 111° |
| 2026-05-08 02:59 | 44.11990 | -123.21500 | 371 ft | 3 kts | 78° |
| 2026-05-08 03:00 | 44.11983 | -123.21517 | 367 ft | 3 kts | 16° |
| 2026-05-08 03:00 | 44.11969 | -123.21520 | 367 ft | 1 kts | 357° |
| 2026-05-08 03:00 | 44.11968 | -123.21520 | 367 ft | 0 kts | 357° |
| 2026-05-08 03:04 | 44.11979 | -123.21521 | 371 ft | 6 kts | 352° |
| 2026-05-08 03:04 | 44.12058 | -123.21543 | 373 ft | 12 kts | 348° |
| 2026-05-08 03:04 | 44.12091 | -123.21615 | 369 ft | 9 kts | 271° |
| 2026-05-08 03:04 | 44.12107 | -123.21703 | 366 ft | 10 kts | 331° |
| 2026-05-08 03:05 | 44.12181 | -123.21706 | 368 ft | 11 kts | 360° |
| 2026-05-08 03:05 | 44.12260 | -123.21707 | 372 ft | 12 kts | 359° |
| 2026-05-08 03:05 | 44.12365 | -123.21709 | 370 ft | 17 kts | 359° |
| 2026-05-08 03:05 | 44.12496 | -123.21711 | 372 ft | 20 kts | 359° |
| 2026-05-08 03:06 | 44.12640 | -123.21714 | 371 ft | 22 kts | 359° |
| 2026-05-08 03:06 | 44.12803 | -123.21715 | 369 ft | 25 kts | 359° |
| 2026-05-08 03:06 | 44.12980 | -123.21718 | 371 ft | 26 kts | 359° |
| 2026-05-08 03:06 | 44.13170 | -123.21720 | 370 ft | 28 kts | 360° |
| 2026-05-08 03:07 | 44.13369 | -123.21723 | 372 ft | 28 kts | 359° |
| 2026-05-08 03:07 | 44.13521 | -123.21733 | 372 ft | 14 kts | 339° |
| 2026-05-08 03:07 | 44.13536 | -123.21794 | 373 ft | 6 kts | 268° |
| 2026-05-08 03:07 | 44.13535 | -123.21855 | 373 ft | 8 kts | 269° |
| 2026-05-08 03:08 | 44.13528 | -123.21910 | 373 ft | 7 kts | 231° |
| 2026-05-08 03:08 | 44.13487 | -123.21918 | 373 ft | 0 kts | 177° |
| 2026-05-08 03:08 | 44.13444 | -123.21915 | 374 ft | 30 kts | 178° |
| 2026-05-08 03:08 | 44.12978 | -123.21908 | 372 ft | 100 kts | 179° |
| 2026-05-08 03:09 | 44.12097 | -123.21895 | 373 ft | 152 kts | 179° |
| 2026-05-08 03:09 | 44.11052 | -123.21861 | 932 ft | 148 kts | 178° |
| 2026-05-08 03:09 | 44.10011 | -123.21809 | 1457 ft | 152 kts | 179° |
| 2026-05-08 03:09 | 44.08936 | -123.21738 | 1987 ft | 157 kts | 178° |
| 2026-05-08 03:10 | 44.07793 | -123.21649 | 2239 ft | 180 kts | 178° |
| 2026-05-08 03:10 | 44.06446 | -123.21568 | 2483 ft | 206 kts | 179° |
| 2026-05-08 03:10 | 44.04927 | -123.21515 | 2802 ft | 231 kts | 179° |
| 2026-05-08 03:10 | 44.03235 | -123.21465 | 3254 ft | 255 kts | 179° |
| 2026-05-08 03:11 | 44.01396 | -123.21408 | 3911 ft | 271 kts | 179° |
| 2026-05-08 03:11 | 43.99496 | -123.21343 | 4852 ft | 275 kts | 179° |
| 2026-05-08 03:11 | 43.97572 | -123.21271 | 5816 ft | 279 kts | 180° |
| 2026-05-08 03:11 | 43.95628 | -123.21442 | 6751 ft | 281 kts | 188° |
| 2026-05-08 03:12 | 43.93672 | -123.21770 | 7673 ft | 285 kts | 189° |
| 2026-05-08 03:12 | 43.91694 | -123.22129 | 8540 ft | 289 kts | 189° |
| 2026-05-08 03:12 | 43.89689 | -123.22504 | 9392 ft | 293 kts | 189° |
| 2026-05-08 03:12 | 43.87650 | -123.22881 | 10214 ft | 298 kts | 189° |
| 2026-05-08 03:13 | 43.85523 | -123.23274 | 10564 ft | 321 kts | 190° |
| 2026-05-08 03:13 | 43.83231 | -123.23699 | 10921 ft | 340 kts | 190° |
| 2026-05-08 03:13 | 43.80862 | -123.24130 | 11643 ft | 346 kts | 190° |
| 2026-05-08 03:13 | 43.78462 | -123.24561 | 12460 ft | 350 kts | 191° |
| 2026-05-08 03:14 | 43.76030 | -123.24994 | 13289 ft | 354 kts | 191° |
| 2026-05-08 03:14 | 43.73572 | -123.25429 | 14086 ft | 358 kts | 191° |
| 2026-05-08 03:14 | 43.71652 | -123.25768 | 14685 ft | 361 kts | 191° |
| 2026-05-08 03:14 | 43.69145 | -123.26213 | 15433 ft | 365 kts | 191° |
| 2026-05-08 03:15 | 43.66606 | -123.26664 | 16145 ft | 370 kts | 191° |
| 2026-05-08 03:15 | 43.64042 | -123.27122 | 16838 ft | 374 kts | 191° |
| 2026-05-08 03:15 | 43.61450 | -123.27586 | 17539 ft | 377 kts | 191° |
| 2026-05-08 03:15 | 43.58829 | -123.28054 | 18226 ft | 381 kts | 190° |
| 2026-05-08 03:16 | 43.56186 | -123.28523 | 18916 ft | 385 kts | 190° |
| 2026-05-08 03:16 | 43.53508 | -123.28998 | 19619 ft | 389 kts | 190° |
| 2026-05-08 03:16 | 43.50814 | -123.29478 | 20326 ft | 393 kts | 190° |
| 2026-05-08 03:16 | 43.48091 | -123.29963 | 21033 ft | 397 kts | 190° |
| 2026-05-08 03:17 | 43.45337 | -123.30451 | 21718 ft | 401 kts | 190° |
| 2026-05-08 03:17 | 43.42562 | -123.30943 | 22372 ft | 405 kts | 190° |
| 2026-05-08 03:17 | 43.39750 | -123.31441 | 23008 ft | 408 kts | 190° |
| 2026-05-08 03:17 | 43.36923 | -123.31942 | 23629 ft | 412 kts | 190° |
| 2026-05-08 03:18 | 43.34066 | -123.32448 | 24238 ft | 416 kts | 190° |
| 2026-05-08 03:18 | 43.31183 | -123.32959 | 24824 ft | 419 kts | 190° |
| 2026-05-08 03:18 | 43.28277 | -123.33473 | 25374 ft | 423 kts | 190° |
| 2026-05-08 03:18 | 43.25338 | -123.33987 | 25920 ft | 427 kts | 190° |
| 2026-05-08 03:19 | 43.22374 | -123.34505 | 26443 ft | 431 kts | 190° |
| 2026-05-08 03:19 | 43.19391 | -123.35015 | 26944 ft | 435 kts | 188° |
| 2026-05-08 03:19 | 43.16340 | -123.35057 | 27435 ft | 443 kts | 178° |
| 2026-05-08 03:19 | 43.13251 | -123.34743 | 27926 ft | 446 kts | 178° |
| 2026-05-08 03:20 | 43.10146 | -123.34432 | 28385 ft | 450 kts | 178° |
| 2026-05-08 03:20 | 43.07014 | -123.34125 | 28828 ft | 453 kts | 178° |
| 2026-05-08 03:20 | 43.03858 | -123.33820 | 29252 ft | 456 kts | 179° |
| 2026-05-08 03:20 | 43.00685 | -123.33514 | 29664 ft | 459 kts | 178° |
| 2026-05-08 03:21 | 42.97486 | -123.33204 | 30059 ft | 462 kts | 178° |
| 2026-05-08 03:21 | 42.94274 | -123.32891 | 30428 ft | 464 kts | 178° |
| 2026-05-08 03:21 | 42.91039 | -123.32575 | 30750 ft | 467 kts | 178° |
| 2026-05-08 03:21 | 42.87793 | -123.32261 | 31103 ft | 467 kts | 178° |
| 2026-05-08 03:22 | 42.84557 | -123.31948 | 31531 ft | 466 kts | 178° |
| 2026-05-08 03:22 | 42.81317 | -123.31633 | 31946 ft | 465 kts | 178° |
| 2026-05-08 03:22 | 42.78094 | -123.31321 | 32371 ft | 464 kts | 178° |
| 2026-05-08 03:22 | 42.74876 | -123.31015 | 32776 ft | 463 kts | 178° |
| 2026-05-08 03:23 | 42.71664 | -123.30708 | 33173 ft | 463 kts | 178° |
| 2026-05-08 03:23 | 42.68460 | -123.30402 | 33555 ft | 462 kts | 178° |
| 2026-05-08 03:23 | 42.65258 | -123.30096 | 33947 ft | 461 kts | 178° |
| 2026-05-08 03:23 | 42.62054 | -123.29788 | 34340 ft | 461 kts | 178° |
| 2026-05-08 03:24 | 42.58871 | -123.29481 | 34734 ft | 459 kts | 178° |
| 2026-05-08 03:24 | 42.55679 | -123.29174 | 35086 ft | 459 kts | 178° |
| 2026-05-08 03:24 | 42.52494 | -123.28870 | 35429 ft | 459 kts | 178° |
| 2026-05-08 03:24 | 42.49309 | -123.28568 | 35760 ft | 458 kts | 178° |
| 2026-05-08 03:25 | 42.46124 | -123.28268 | 36080 ft | 458 kts | 178° |
| 2026-05-08 03:25 | 42.42948 | -123.27967 | 36382 ft | 458 kts | 178° |
| 2026-05-08 03:25 | 42.39770 | -123.27664 | 36665 ft | 458 kts | 179° |
| 2026-05-08 03:25 | 42.36590 | -123.27360 | 36959 ft | 458 kts | 179° |
| 2026-05-08 03:26 | 42.33418 | -123.27060 | 37053 ft | 457 kts | 179° |
| 2026-05-08 03:26 | 42.27097 | -123.26462 | 37062 ft | 453 kts | 179° |
| 2026-05-08 03:27 | 42.20815 | -123.25872 | 37064 ft | 452 kts | 179° |
| 2026-05-08 03:27 | 42.15604 | -123.25379 | 37063 ft | 452 kts | 178° |
| 2026-05-08 03:28 | 42.09325 | -123.24779 | 37063 ft | 452 kts | 178° |
| 2026-05-08 03:28 | 42.03049 | -123.24186 | 37066 ft | 452 kts | 179° |
| 2026-05-08 03:29 | 41.96771 | -123.23602 | 37073 ft | 452 kts | 178° |
| 2026-05-08 03:29 | 41.90488 | -123.23021 | 37091 ft | 452 kts | 178° |
| 2026-05-08 03:30 | 41.81078 | -123.22141 | 37101 ft | 451 kts | 178° |
| 2026-05-08 03:31 | 41.68544 | -123.20960 | 37103 ft | 451 kts | 178° |
| 2026-05-08 03:32 | 41.59137 | -123.20093 | 37108 ft | 452 kts | 178° |
| 2026-05-08 03:32 | 41.52867 | -123.19513 | 37103 ft | 451 kts | 178° |
| 2026-05-08 03:33 | 41.46608 | -123.18924 | 37107 ft | 451 kts | 178° |
| 2026-05-08 03:33 | 41.40374 | -123.18355 | 37110 ft | 451 kts | 178° |
| 2026-05-08 03:34 | 41.34111 | -123.17782 | 37123 ft | 451 kts | 178° |
| 2026-05-08 03:34 | 41.27847 | -123.17199 | 37121 ft | 451 kts | 178° |
| 2026-05-08 03:35 | 41.21587 | -123.16623 | 37128 ft | 451 kts | 178° |
| 2026-05-08 03:35 | 41.15331 | -123.16050 | 37133 ft | 451 kts | 178° |
| 2026-05-08 03:36 | 41.09075 | -123.15488 | 37136 ft | 451 kts | 178° |
| 2026-05-08 03:36 | 41.02819 | -123.14921 | 37131 ft | 450 kts | 178° |
| 2026-05-08 03:37 | 40.96562 | -123.14345 | 37126 ft | 450 kts | 178° |
| 2026-05-08 03:37 | 40.90316 | -123.13771 | 37122 ft | 450 kts | 178° |
| 2026-05-08 03:38 | 40.84067 | -123.13212 | 37112 ft | 450 kts | 178° |
| 2026-05-08 03:38 | 40.77860 | -123.12651 | 37109 ft | 450 kts | 178° |
| 2026-05-08 03:39 | 40.71610 | -123.12090 | 37106 ft | 450 kts | 178° |
| 2026-05-08 03:39 | 40.65369 | -123.11519 | 37105 ft | 450 kts | 178° |
| 2026-05-08 03:40 | 40.59128 | -123.10952 | 37099 ft | 450 kts | 178° |
| 2026-05-08 03:40 | 40.52885 | -123.10390 | 37103 ft | 450 kts | 178° |
| 2026-05-08 03:41 | 40.46634 | -123.09836 | 37098 ft | 450 kts | 178° |
| 2026-05-08 03:41 | 40.40392 | -123.09283 | 37103 ft | 450 kts | 178° |
| 2026-05-08 03:42 | 40.34143 | -123.08722 | 37102 ft | 450 kts | 178° |
| 2026-05-08 03:42 | 40.27901 | -123.08159 | 37103 ft | 450 kts | 178° |
| 2026-05-08 03:43 | 40.21657 | -123.07605 | 37102 ft | 450 kts | 178° |
| 2026-05-08 03:43 | 40.15416 | -123.07045 | 37105 ft | 449 kts | 178° |
| 2026-05-08 03:44 | 40.09178 | -123.06489 | 37109 ft | 449 kts | 178° |
| 2026-05-08 03:44 | 40.02937 | -123.05938 | 37112 ft | 449 kts | 178° |
| 2026-05-08 03:45 | 39.96703 | -123.05390 | 37112 ft | 449 kts | 178° |
| 2026-05-08 03:45 | 39.90469 | -123.04837 | 37123 ft | 449 kts | 178° |
| 2026-05-08 03:46 | 39.84235 | -123.04297 | 37110 ft | 449 kts | 178° |
| 2026-05-08 03:46 | 39.78009 | -123.03751 | 37104 ft | 448 kts | 178° |
| 2026-05-08 03:47 | 39.71793 | -123.03197 | 37104 ft | 448 kts | 178° |
| 2026-05-08 03:47 | 39.65575 | -123.02652 | 37094 ft | 447 kts | 178° |
| 2026-05-08 03:48 | 39.59369 | -123.02115 | 37100 ft | 447 kts | 178° |
| 2026-05-08 03:48 | 39.53157 | -123.01577 | 37098 ft | 447 kts | 178° |
| 2026-05-08 03:49 | 39.46947 | -123.01031 | 37101 ft | 447 kts | 178° |
| 2026-05-08 03:49 | 39.40741 | -123.00491 | 37099 ft | 447 kts | 178° |
| 2026-05-08 03:50 | 39.34529 | -122.99956 | 37106 ft | 447 kts | 178° |
| 2026-05-08 03:50 | 39.28326 | -122.99423 | 37099 ft | 447 kts | 178° |
| 2026-05-08 03:51 | 39.22129 | -122.98879 | 37103 ft | 446 kts | 178° |
| 2026-05-08 03:51 | 39.15931 | -122.98336 | 37106 ft | 446 kts | 178° |
| 2026-05-08 03:52 | 39.09736 | -122.97804 | 37102 ft | 446 kts | 178° |
| 2026-05-08 03:52 | 39.03530 | -122.97270 | 36891 ft | 451 kts | 178° |
| 2026-05-08 03:52 | 39.00377 | -122.97002 | 36019 ft | 457 kts | 178° |
| 2026-05-08 03:53 | 38.97201 | -122.96735 | 35238 ft | 458 kts | 178° |
| 2026-05-08 03:53 | 38.94014 | -122.96463 | 34410 ft | 459 kts | 177° |
| 2026-05-08 03:53 | 38.90817 | -122.96183 | 33546 ft | 461 kts | 177° |
| 2026-05-08 03:53 | 38.87609 | -122.95826 | 32653 ft | 464 kts | 172° |
| 2026-05-08 03:54 | 38.84481 | -122.94977 | 32310 ft | 455 kts | 168° |
| 2026-05-08 03:54 | 38.81407 | -122.94060 | 31671 ft | 453 kts | 168° |
| 2026-05-08 03:54 | 38.78359 | -122.93166 | 31233 ft | 446 kts | 168° |
| 2026-05-08 03:54 | 38.75330 | -122.92283 | 30610 ft | 444 kts | 168° |
| 2026-05-08 03:55 | 38.72373 | -122.91422 | 30006 ft | 442 kts | 168° |
| 2026-05-08 03:55 | 38.69353 | -122.90539 | 29546 ft | 436 kts | 168° |
| 2026-05-08 03:55 | 38.66438 | -122.89681 | 28940 ft | 434 kts | 168° |
| 2026-05-08 03:55 | 38.63514 | -122.88814 | 28341 ft | 431 kts | 168° |
| 2026-05-08 03:56 | 38.60567 | -122.87939 | 27891 ft | 426 kts | 168° |
| 2026-05-08 03:56 | 38.57689 | -122.87083 | 27285 ft | 424 kts | 168° |
| 2026-05-08 03:56 | 38.54840 | -122.86238 | 26813 ft | 419 kts | 168° |
| 2026-05-08 03:56 | 38.52001 | -122.85401 | 26298 ft | 416 kts | 168° |
| 2026-05-08 03:57 | 38.49194 | -122.84574 | 25723 ft | 414 kts | 168° |
| 2026-05-08 03:57 | 38.46441 | -122.83764 | 25336 ft | 409 kts | 168° |
| 2026-05-08 03:57 | 38.43680 | -122.82950 | 24781 ft | 408 kts | 168° |
| 2026-05-08 03:57 | 38.40903 | -122.82135 | 24401 ft | 402 kts | 168° |
| 2026-05-08 03:58 | 38.38213 | -122.81351 | 23936 ft | 400 kts | 168° |
| 2026-05-08 03:58 | 38.35505 | -122.80561 | 23492 ft | 398 kts | 168° |
| 2026-05-08 03:58 | 38.32813 | -122.79776 | 23051 ft | 396 kts | 168° |
| 2026-05-08 03:58 | 38.30135 | -122.78995 | 22608 ft | 393 kts | 168° |
| 2026-05-08 03:59 | 38.27479 | -122.78218 | 22160 ft | 390 kts | 168° |
| 2026-05-08 03:59 | 38.24808 | -122.77437 | 21699 ft | 388 kts | 168° |
| 2026-05-08 03:59 | 38.22218 | -122.76683 | 21237 ft | 385 kts | 168° |
| 2026-05-08 03:59 | 38.19615 | -122.75923 | 20763 ft | 383 kts | 168° |
| 2026-05-08 04:00 | 38.17029 | -122.75169 | 20284 ft | 380 kts | 168° |
| 2026-05-08 04:00 | 38.14459 | -122.74420 | 19796 ft | 378 kts | 168° |
| 2026-05-08 04:00 | 38.11907 | -122.73679 | 19301 ft | 375 kts | 168° |
| 2026-05-08 04:00 | 38.09373 | -122.72943 | 18806 ft | 373 kts | 168° |
| 2026-05-08 04:01 | 38.06855 | -122.72212 | 18309 ft | 370 kts | 168° |
| 2026-05-08 04:01 | 38.04352 | -122.71482 | 17819 ft | 368 kts | 168° |
| 2026-05-08 04:01 | 38.01909 | -122.70772 | 17331 ft | 365 kts | 168° |
| 2026-05-08 04:01 | 37.99409 | -122.70052 | 16837 ft | 363 kts | 168° |
| 2026-05-08 04:02 | 37.96955 | -122.69343 | 16352 ft | 360 kts | 168° |
| 2026-05-08 04:02 | 37.94526 | -122.68641 | 15871 ft | 358 kts | 168° |
| 2026-05-08 04:02 | 37.92113 | -122.67923 | 15393 ft | 355 kts | 165° |
| 2026-05-08 04:02 | 37.89828 | -122.66768 | 14928 ft | 354 kts | 153° |
| 2026-05-08 04:03 | 37.87810 | -122.65064 | 14453 ft | 353 kts | 141° |
| 2026-05-08 04:03 | 37.84111 | -122.61136 | 13469 ft | 350 kts | 141° |
| 2026-05-08 04:03 | 37.82257 | -122.59174 | 13012 ft | 347 kts | 141° |
| 2026-05-08 04:04 | 37.80409 | -122.57218 | 12554 ft | 344 kts | 141° |
| 2026-05-08 04:04 | 37.78605 | -122.55307 | 12094 ft | 342 kts | 141° |
| 2026-05-08 04:04 | 37.76798 | -122.53394 | 11814 ft | 323 kts | 141° |
| 2026-05-08 04:04 | 37.75134 | -122.51626 | 11350 ft | 312 kts | 141° |
| 2026-05-08 04:05 | 37.73482 | -122.49873 | 11048 ft | 302 kts | 141° |
| 2026-05-08 04:05 | 37.71887 | -122.48184 | 11015 ft | 305 kts | 141° |
| 2026-05-08 04:05 | 37.70259 | -122.46457 | 11018 ft | 305 kts | 141° |
| 2026-05-08 04:05 | 37.68642 | -122.44735 | 11023 ft | 305 kts | 141° |
| 2026-05-08 04:06 | 37.67021 | -122.43009 | 11028 ft | 305 kts | 141° |
| 2026-05-08 04:06 | 37.65399 | -122.41282 | 11020 ft | 305 kts | 141° |
| 2026-05-08 04:06 | 37.64254 | -122.40063 | 11019 ft | 305 kts | 141° |
| 2026-05-08 04:06 | 37.62637 | -122.38340 | 11019 ft | 305 kts | 141° |
| 2026-05-08 04:07 | 37.60946 | -122.36718 | 11010 ft | 304 kts | 149° |
| 2026-05-08 04:07 | 37.59280 | -122.35265 | 10981 ft | 325 kts | 139° |
| 2026-05-08 04:07 | 37.57901 | -122.32974 | 10740 ft | 332 kts | 115° |
| 2026-05-08 04:07 | 37.57337 | -122.30181 | 10489 ft | 328 kts | 92° |
| 2026-05-08 04:08 | 37.57631 | -122.27426 | 10243 ft | 320 kts | 75° |
| 2026-05-08 04:08 | 37.58237 | -122.24764 | 10062 ft | 312 kts | 73° |
| 2026-05-08 04:08 | 37.58847 | -122.22209 | 10018 ft | 298 kts | 73° |
| 2026-05-08 04:08 | 37.59432 | -122.19774 | 10023 ft | 283 kts | 73° |
| 2026-05-08 04:09 | 37.60006 | -122.17388 | 10033 ft | 293 kts | 73° |
| 2026-05-08 04:09 | 37.60610 | -122.14882 | 10030 ft | 302 kts | 73° |
| 2026-05-08 04:09 | 37.61016 | -122.13199 | 10029 ft | 304 kts | 72° |
| 2026-05-08 04:09 | 37.61605 | -122.10760 | 10030 ft | 305 kts | 72° |
| 2026-05-08 04:10 | 37.62152 | -122.08488 | 10030 ft | 305 kts | 72° |
| 2026-05-08 04:10 | 37.62772 | -122.05920 | 10022 ft | 306 kts | 72° |
| 2026-05-08 04:10 | 37.63392 | -122.03348 | 9702 ft | 306 kts | 72° |
| 2026-05-08 04:10 | 37.63919 | -122.00774 | 9365 ft | 299 kts | 85° |
| 2026-05-08 04:11 | 37.63931 | -121.99644 | 9225 ft | 293 kts | 97° |
| 2026-05-08 04:11 | 37.63513 | -121.97725 | 8961 ft | 281 kts | 119° |
| 2026-05-08 04:11 | 37.62310 | -121.95902 | 8630 ft | 265 kts | 147° |
| 2026-05-08 04:11 | 37.60662 | -121.95078 | 8302 ft | 250 kts | 178° |
| 2026-05-08 04:12 | 37.59013 | -121.95399 | 7986 ft | 237 kts | 209° |
| 2026-05-08 04:12 | 37.57790 | -121.96727 | 7656 ft | 233 kts | 239° |
| 2026-05-08 04:12 | 37.57038 | -121.98522 | 7185 ft | 232 kts | 246° |
| 2026-05-08 04:12 | 37.56383 | -122.00381 | 6710 ft | 231 kts | 248° |
| 2026-05-08 04:13 | 37.55808 | -122.02043 | 6263 ft | 230 kts | 248° |
| 2026-05-08 04:13 | 37.55171 | -122.03884 | 5762 ft | 230 kts | 248° |
| 2026-05-08 04:13 | 37.54531 | -122.05729 | 5258 ft | 229 kts | 248° |
| 2026-05-08 04:13 | 37.53889 | -122.07563 | 4765 ft | 229 kts | 248° |
| 2026-05-08 04:14 | 37.53242 | -122.09397 | 4247 ft | 228 kts | 248° |
| 2026-05-08 04:14 | 37.52753 | -122.10764 | 3876 ft | 227 kts | 249° |
| 2026-05-08 04:14 | 37.52371 | -122.12558 | 3392 ft | 223 kts | 268° |
| 2026-05-08 04:14 | 37.52517 | -122.14467 | 3041 ft | 215 kts | 289° |
| 2026-05-08 04:15 | 37.53117 | -122.16164 | 3023 ft | 214 kts | 300° |
| 2026-05-08 04:15 | 37.53783 | -122.17737 | 3012 ft | 205 kts | 299° |
| 2026-05-08 04:15 | 37.54397 | -122.19194 | 2883 ft | 198 kts | 300° |
| 2026-05-08 04:15 | 37.55036 | -122.20707 | 2680 ft | 193 kts | 299° |
| 2026-05-08 04:16 | 37.55642 | -122.22141 | 2414 ft | 189 kts | 299° |
| 2026-05-08 04:16 | 37.56242 | -122.23566 | 2160 ft | 178 kts | 298° |
| 2026-05-08 04:16 | 37.56803 | -122.24900 | 1936 ft | 164 kts | 298° |
| 2026-05-08 04:16 | 37.57313 | -122.26110 | 1730 ft | 149 kts | 298° |
| 2026-05-08 04:17 | 37.57780 | -122.27218 | 1536 ft | 139 kts | 298° |
| 2026-05-08 04:17 | 37.58229 | -122.28282 | 1365 ft | 135 kts | 298° |
| 2026-05-08 04:17 | 37.58665 | -122.29319 | 1193 ft | 133 kts | 297° |
| 2026-05-08 04:17 | 37.59091 | -122.30330 | 1021 ft | 127 kts | 294° |
| 2026-05-08 04:18 | 37.59503 | -122.31309 | 847 ft | 126 kts | 294° |
| 2026-05-08 04:18 | 37.59918 | -122.32296 | 678 ft | 126 kts | 295° |
| 2026-05-08 04:18 | 37.60326 | -122.33268 | 512 ft | 125 kts | 294° |
| 2026-05-08 04:18 | 37.60694 | -122.34145 | 367 ft | 124 kts | 295° |
| 2026-05-08 04:19 | 37.61100 | -122.35111 | 192 ft | 126 kts | 296° |
| 2026-05-08 04:19 | 37.61470 | -122.35986 | 60 ft | 127 kts | 297° |
| 2026-05-08 04:19 | 37.61838 | -122.36880 | 18 ft | 100 kts | 297° |
| 2026-05-08 04:19 | 37.62083 | -122.37459 | 18 ft | 47 kts | 297° |
| 2026-05-08 04:20 | 37.62189 | -122.37733 | 21 ft | 21 kts | 292° |
| 2026-05-08 04:20 | 37.62207 | -122.37915 | 23 ft | 19 kts | 275° |
| 2026-05-08 04:20 | 37.62223 | -122.38063 | 29 ft | 10 kts | 278° |
| 2026-05-08 04:20 | 37.62224 | -122.38078 | 25 ft | 0 kts | 277° |
| 2026-05-08 04:21 | 37.62224 | -122.38080 | 26 ft | 0 kts | 277° |
| 2026-05-08 04:21 | 37.62226 | -122.38100 | 27 ft | 4 kts | 277° |
| 2026-05-08 04:22 | 37.62229 | -122.38177 | 25 ft | 14 kts | 265° |
| 2026-05-08 04:22 | 37.62161 | -122.38303 | 22 ft | 22 kts | 206° |
| 2026-05-08 04:22 | 37.62049 | -122.38332 | 23 ft | 14 kts | 179° |
| 2026-05-08 04:22 | 37.61981 | -122.38236 | 23 ft | 17 kts | 118° |
| 2026-05-08 04:23 | 37.61921 | -122.38094 | 22 ft | 17 kts | 118° |
| 2026-05-08 04:23 | 37.61848 | -122.37981 | 21 ft | 17 kts | 149° |
| 2026-05-08 04:23 | 37.61724 | -122.37939 | 19 ft | 19 kts | 184° |
| 2026-05-08 04:23 | 37.61601 | -122.38008 | 16 ft | 18 kts | 209° |
| 2026-05-08 04:24 | 37.61573 | -122.38077 | 14 ft | 8 kts | 287° |
| 2026-05-08 04:24 | 37.61595 | -122.38132 | 15 ft | 7 kts | 312° |
| 2026-05-08 04:24 | 37.61614 | -122.38138 | 15 ft | 1 kts | 3° |
| 2026-05-08 04:24 | 37.61625 | -122.38132 | 16 ft | 3 kts | 24° |
| 2026-05-08 04:25 | 37.61654 | -122.38126 | 18 ft | 4 kts | 4° |
| 2026-05-08 04:25 | 37.61668 | -122.38126 | 17 ft | 2 kts | 2° |
| 2026-05-08 04:25 | 37.61670 | -122.38126 | 17 ft | 0 kts | 2° |